Time;durP1;ratioP1;P1;durP2;ratioP2;P2;SDS_P1;SDS_P2;PMS_P1;PMS_P2;Temp;Humidity;BMP_temperature;BMP_pressure;BME280_temperature;BME280_humidity;BME280_pressure;Samples;Min_cycle;Max_cycle;Signal;HPM_P1;HPM_P2
2022/09/07 00:01:02;;;;;;;7.78;2.10;;;16.20;99.90;;;;;;5056690;28;20067;-59
2022/09/07 00:03:29;;;;;;;12.98;1.52;;;16.20;99.90;;;;;;5048671;28;20053;-59
2022/09/07 00:05:56;;;;;;;12.30;1.50;;;16.10;99.90;;;;;;5048867;28;20132;-59
2022/09/07 00:08:24;;;;;;;15.77;2.53;;;16.10;99.90;;;;;;5047934;28;20076;-60
2022/09/07 00:10:58;;;;;;;11.80;1.83;;;16.10;99.90;;;;;;5049125;28;20049;-63
2022/09/07 00:13:26;;;;;;;12.38;2.00;;;16.10;99.90;;;;;;5047751;28;20041;-60
2022/09/07 00:15:53;;;;;;;11.20;1.60;;;16.10;99.90;;;;;;5048947;28;20072;-59
2022/09/07 00:18:20;;;;;;;8.73;1.73;;;16.10;99.90;;;;;;5048172;28;20080;-59
2022/09/07 00:20:55;;;;;;;9.35;1.52;;;16.00;99.90;;;;;;5048708;28;20080;-59
2022/09/07 00:23:22;;;;;;;4.15;1.50;;;16.00;99.90;;;;;;5048577;28;20107;-57
2022/09/07 00:25:49;;;;;;;11.73;1.92;;;16.00;99.90;;;;;;5048130;28;20080;-60
2022/09/07 00:28:19;;;;;;;9.35;1.60;;;16.00;99.90;;;;;;5048345;28;20055;-60
2022/09/07 00:30:46;;;;;;;9.30;1.33;;;16.00;99.90;;;;;;5048372;28;20080;-59
2022/09/07 00:33:13;;;;;;;10.13;1.70;;;16.00;99.90;;;;;;5048170;28;20052;-59
2022/09/07 00:35:40;;;;;;;8.10;1.35;;;16.00;99.90;;;;;;5048459;28;20132;-59
2022/09/07 00:38:07;;;;;;;8.35;1.75;;;16.00;99.90;;;;;;5048235;28;20189;-60
2022/09/07 00:40:34;;;;;;;10.82;2.25;;;16.00;99.90;;;;;;5048449;28;20535;-59
2022/09/07 00:43:01;;;;;;;13.02;1.75;;;16.00;99.90;;;;;;5047871;28;20182;-59
2022/09/07 00:45:28;;;;;;;9.15;1.40;;;16.00;99.90;;;;;;5048153;28;20072;-59
2022/09/07 00:48:05;;;;;;;13.88;2.35;;;16.00;99.90;;;;;;5047767;28;20083;-59
2022/09/07 00:50:54;;;;;;;15.07;1.85;;;16.00;99.90;;;;;;5048882;28;20052;-59
2022/09/07 00:53:45;;;;;;;11.18;1.55;;;16.10;99.90;;;;;;5046736;28;20045;-59
2022/09/07 00:56:12;;;;;;;7.82;2.00;;;16.10;99.90;;;;;;5033080;28;20413;-59
2022/09/07 00:58:40;;;;;;;10.10;1.40;;;16.10;99.90;;;;;;5046981;28;20041;-59
2022/09/07 01:01:08;;;;;;;10.85;1.52;;;16.10;99.90;;;;;;5040213;28;20094;-59
2022/09/07 01:03:41;;;;;;;9.88;2.72;;;16.10;99.90;;;;;;5035753;28;20126;-59
2022/09/07 01:06:32;;;;;;;7.45;1.65;;;16.10;99.90;;;;;;5046978;28;20074;-59
2022/09/07 01:09:04;;;;;;;8.65;1.42;;;16.10;99.90;;;;;;5046824;28;20049;-59
2022/09/07 01:11:33;;;;;;;8.93;1.48;;;16.10;99.90;;;;;;5024042;28;20309;-60
2022/09/07 01:14:00;;;;;;;9.80;1.92;;;16.00;99.90;;;;;;5047660;28;20114;-60
2022/09/07 01:16:45;;;;;;;5.32;1.48;;;16.00;99.90;;;;;;5047930;28;20460;-59
2022/09/07 01:19:43;;;;;;;7.15;1.50;;;16.00;99.90;;;;;;5048556;28;20041;-60
2022/09/07 01:22:37;;;;;;;8.25;1.58;;;16.00;99.90;;;;;;5048016;28;20049;-60
2022/09/07 01:25:13;;;;;;;;;;;15.90;99.90;;;;;;5047288;28;20102;-60
2022/09/07 01:27:47;;;;;;;8.95;2.00;;;15.90;99.90;;;;;;5051868;28;20116;-60
2022/09/07 01:30:16;;;;;;;9.10;1.65;;;15.80;99.90;;;;;;5050954;28;20120;-60
2022/09/07 01:32:56;;;;;;;12.98;3.08;;;15.80;99.90;;;;;;5034298;28;20496;-60
2022/09/07 01:35:28;;;;;;;12.00;2.33;;;15.80;99.90;;;;;;5050539;28;20053;-60
2022/09/07 01:38:03;;;;;;;9.82;2.42;;;15.80;99.90;;;;;;5052085;28;20107;-60
2022/09/07 01:40:39;;;;;;;6.28;1.48;;;15.80;99.90;;;;;;5050625;28;20084;-60
2022/09/07 01:43:28;;;;;;;8.38;1.25;;;15.70;99.90;;;;;;5043782;28;20075;-59
2022/09/07 01:45:54;;;;;;;8.88;2.42;;;15.70;99.90;;;;;;5050273;28;20080;-58
2022/09/07 01:48:21;;;;;;;11.85;1.90;;;15.60;99.90;;;;;;5052920;28;20503;-60
2022/09/07 01:51:00;;;;;;;10.85;1.83;;;15.60;99.90;;;;;;5050168;28;20041;-59
2022/09/07 01:53:57;;;;;;;16.80;1.90;;;15.60;99.90;;;;;;5050396;28;20056;-60
2022/09/07 01:56:30;;;;;;;7.00;1.63;;;15.60;99.90;;;;;;5050450;28;20203;-59
2022/09/07 01:59:16;;;;;;;7.05;2.38;;;15.60;99.90;;;;;;5033989;28;20052;-59
2022/09/07 02:01:47;;;;;;;14.23;3.33;;;15.50;99.90;;;;;;5036203;28;20088;-64
2022/09/07 02:04:33;;;;;;;7.93;1.60;;;15.50;99.90;;;;;;5034117;28;20048;-60
2022/09/07 02:07:04;;;;;;;7.80;1.60;;;15.50;99.90;;;;;;5049608;28;20072;-60
2022/09/07 02:09:31;;;;;;;8.73;2.28;;;15.50;99.90;;;;;;5047150;28;20099;-60
2022/09/07 02:12:01;;;;;;;12.05;2.45;;;15.50;99.90;;;;;;5050087;28;20044;-59
2022/09/07 02:14:30;;;;;;;4.95;1.60;;;15.50;99.90;;;;;;5049974;28;20549;-59
2022/09/07 02:17:05;;;;;;;9.40;2.03;;;15.50;99.90;;;;;;5051226;28;20072;-58
2022/09/07 02:19:36;;;;;;;6.75;1.35;;;15.50;99.90;;;;;;5049846;28;20132;-59
2022/09/07 02:22:06;;;;;;;10.30;1.67;;;15.60;99.90;;;;;;5033139;28;20041;-58
2022/09/07 02:24:36;;;;;;;10.45;2.58;;;15.60;99.90;;;;;;5049705;28;20052;-58
2022/09/07 02:27:11;;;;;;;15.30;2.42;;;15.60;99.90;;;;;;5032911;28;20037;-59
2022/09/07 02:29:38;;;;;;;12.45;1.83;;;15.70;99.90;;;;;;5049655;28;20362;-58
2022/09/07 02:32:05;;;;;;;12.20;1.50;;;15.70;99.90;;;;;;5048699;28;20205;-59
2022/09/07 02:34:31;;;;;;;12.40;2.08;;;15.80;99.90;;;;;;5033195;28;20049;-59
2022/09/07 02:36:59;;;;;;;6.30;1.65;;;15.80;99.90;;;;;;5049322;28;20041;-59
2022/09/07 02:39:26;;;;;;;14.40;2.00;;;15.80;99.90;;;;;;5049629;28;20045;-59
2022/09/07 02:41:53;;;;;;;13.07;2.60;;;15.80;99.90;;;;;;5049026;28;20045;-59
2022/09/07 02:44:24;;;;;;;17.90;3.95;;;15.80;99.90;;;;;;5050531;28;20124;-59
2022/09/07 02:47:00;;;;;;;12.30;2.22;;;15.90;99.90;;;;;;5049793;28;20045;-59
2022/09/07 02:49:50;;;;;;;13.27;1.80;;;15.90;99.90;;;;;;5050504;28;20136;-59
2022/09/07 02:52:39;;;;;;;10.23;2.25;;;15.80;99.90;;;;;;5049183;28;20045;-59
2022/09/07 02:55:09;;;;;;;9.00;1.92;;;15.80;99.90;;;;;;5043312;28;20073;-59
2022/09/07 02:58:09;;;;;;;10.65;2.55;;;15.80;99.90;;;;;;5050633;28;20041;-59
2022/09/07 03:00:43;;;;;;;12.82;1.83;;;15.80;99.90;;;;;;5046366;28;20413;-60
2022/09/07 03:03:30;;;;;;;13.35;2.20;;;15.90;99.90;;;;;;5032792;28;20427;-59
2022/09/07 03:06:05;;;;;;;15.05;2.22;;;15.90;99.90;;;;;;5049044;28;20123;-60
2022/09/07 03:08:38;;;;;;;14.48;2.58;;;15.90;99.90;;;;;;5048892;28;20136;-60
2022/09/07 03:11:05;;;;;;;12.83;2.70;;;15.90;99.90;;;;;;5050147;28;20045;-59
2022/09/07 03:13:32;;;;;;;14.75;2.45;;;15.90;99.90;;;;;;5048598;28;20102;-59
2022/09/07 03:15:59;;;;;;;12.32;1.90;;;15.90;99.90;;;;;;5049933;28;20480;-59
2022/09/07 03:18:26;;;;;;;6.32;2.08;;;15.90;99.90;;;;;;5049939;28;20136;-60
2022/09/07 03:20:53;;;;;;;14.32;2.08;;;16.00;99.90;;;;;;5049234;28;20044;-60
2022/09/07 03:23:20;;;;;;;10.77;2.97;;;16.00;99.90;;;;;;5048764;28;20080;-59
2022/09/07 03:25:47;;;;;;;11.30;2.10;;;16.00;99.90;;;;;;5049649;28;20331;-59
2022/09/07 03:28:15;;;;;;;12.20;2.47;;;16.10;99.90;;;;;;5049622;28;20170;-60
2022/09/07 03:30:48;;;;;;;16.63;3.05;;;16.10;99.90;;;;;;5049887;28;20095;-60
2022/09/07 03:33:15;;;;;;;12.82;3.38;;;16.10;99.90;;;;;;5049577;28;20044;-59
2022/09/07 03:35:43;;;;;;;18.65;2.80;;;16.10;99.90;;;;;;5049423;28;20076;-59
2022/09/07 03:38:09;;;;;;;9.45;2.25;;;16.20;99.90;;;;;;5049835;28;20052;-59
2022/09/07 03:40:36;;;;;;;18.42;2.75;;;16.30;99.90;;;;;;5048024;28;20111;-59
2022/09/07 03:43:03;;;;;;;15.25;3.42;;;16.30;99.90;;;;;;5048349;28;20136;-59
2022/09/07 03:45:30;;;;;;;18.65;3.40;;;16.30;99.90;;;;;;5049126;28;20068;-60
2022/09/07 03:47:57;;;;;;;11.15;2.03;;;16.40;99.90;;;;;;5049670;28;20095;-61
2022/09/07 03:50:24;;;;;;;16.55;2.88;;;16.40;99.90;;;;;;5048841;28;20558;-62
2022/09/07 03:52:51;;;;;;;19.30;3.95;;;16.50;99.90;;;;;;5049234;28;20087;-59
2022/09/07 03:55:18;;;;;;;18.83;3.92;;;16.50;99.90;;;;;;5049446;28;20136;-60
2022/09/07 03:57:45;;;;;;;16.83;3.70;;;16.60;99.90;;;;;;5051704;28;20098;-60
2022/09/07 04:00:12;;;;;;;27.60;4.15;;;16.60;99.90;;;;;;5048997;28;20068;-59
2022/09/07 04:02:39;;;;;;;17.88;3.22;;;16.60;99.90;;;;;;5048946;28;20055;-59
2022/09/07 04:05:06;;;;;;;18.02;2.72;;;16.70;99.90;;;;;;5036534;28;20045;-60
2022/09/07 04:07:33;;;;;;;16.85;3.25;;;16.70;99.90;;;;;;5043643;28;20140;-59
2022/09/07 04:10:00;;;;;;;17.15;3.30;;;16.80;99.90;;;;;;5048422;28;20112;-60
2022/09/07 04:12:27;;;;;;;10.52;2.20;;;16.80;99.90;;;;;;5048807;28;20079;-60
2022/09/07 04:14:54;;;;;;;13.18;3.10;;;16.80;99.90;;;;;;5048631;28;20076;-59
2022/09/07 04:17:21;;;;;;;14.77;2.83;;;16.90;99.90;;;;;;5048696;28;20118;-59
2022/09/07 04:19:48;;;;;;;18.55;2.97;;;16.90;99.90;;;;;;5048306;28;20128;-59
2022/09/07 04:22:14;;;;;;;19.48;3.60;;;16.80;99.90;;;;;;5048193;28;20045;-59
2022/09/07 04:24:41;;;;;;;15.10;2.80;;;16.80;99.90;;;;;;5048932;28;20079;-59
2022/09/07 04:27:08;;;;;;;12.43;3.65;;;16.80;99.90;;;;;;5048134;28;20122;-59
2022/09/07 04:29:35;;;;;;;16.60;3.45;;;16.80;99.90;;;;;;5048466;28;20463;-59
2022/09/07 04:32:01;;;;;;;14.50;3.72;;;16.80;99.90;;;;;;5048075;28;20084;-59
2022/09/07 04:34:28;;;;;;;11.80;2.30;;;16.80;99.90;;;;;;5048567;28;20136;-59
2022/09/07 04:36:55;;;;;;;7.72;2.38;;;16.90;99.90;;;;;;5047892;28;20076;-58
2022/09/07 04:39:22;;;;;;;9.85;2.45;;;16.80;99.90;;;;;;5048269;28;20107;-59
2022/09/07 04:41:49;;;;;;;16.30;2.85;;;16.80;99.90;;;;;;5050256;28;20269;-59
2022/09/07 04:44:15;;;;;;;7.22;2.20;;;16.80;99.90;;;;;;5049541;28;20151;-60
2022/09/07 04:46:42;;;;;;;11.52;2.38;;;16.70;99.90;;;;;;5053570;28;20045;-61
2022/09/07 04:49:09;;;;;;;10.55;2.00;;;16.70;99.90;;;;;;5052970;28;20044;-59
2022/09/07 04:51:37;;;;;;;7.57;1.75;;;16.70;99.90;;;;;;5038765;28;20403;-59
2022/09/07 04:54:04;;;;;;;10.48;2.72;;;16.70;99.90;;;;;;5047831;28;20132;-59
2022/09/07 04:56:31;;;;;;;13.23;2.22;;;16.60;99.90;;;;;;5047726;28;20053;-58
2022/09/07 04:58:59;;;;;;;15.93;2.83;;;16.60;99.90;;;;;;5047952;28;20110;-59
2022/09/07 05:01:26;;;;;;;11.30;3.20;;;16.60;99.90;;;;;;5048155;28;20045;-60
2022/09/07 05:03:53;;;;;;;8.60;1.98;;;16.50;99.90;;;;;;5046235;28;20408;-59
2022/09/07 05:06:21;;;;;;;11.05;2.47;;;16.50;99.90;;;;;;5047847;28;20041;-60
2022/09/07 05:08:50;;;;;;;8.43;1.67;;;16.50;99.90;;;;;;5029054;28;20045;-59
2022/09/07 05:11:17;;;;;;;15.73;3.25;;;16.50;99.90;;;;;;5047840;28;20104;-59
2022/09/07 05:13:44;;;;;;;12.32;1.98;;;16.40;99.90;;;;;;5046388;28;20036;-59
2022/09/07 05:16:19;;;;;;;11.07;2.53;;;16.40;99.90;;;;;;5047594;28;20091;-59
2022/09/07 05:19:00;;;;;;;12.38;2.67;;;16.30;99.90;;;;;;5045217;28;20090;-59
2022/09/07 05:21:28;;;;;;;8.50;1.92;;;16.30;99.90;;;;;;5038192;28;20056;-59
2022/09/07 05:23:56;;;;;;;12.15;2.42;;;16.20;99.90;;;;;;5047457;28;20057;-60
2022/09/07 05:26:24;;;;;;;14.07;2.38;;;16.20;99.90;;;;;;5026083;28;20077;-59
2022/09/07 05:28:51;;;;;;;15.27;3.55;;;16.20;99.90;;;;;;5046973;28;20140;-59
2022/09/07 05:31:22;;;;;;;12.52;2.47;;;16.20;99.90;;;;;;5047781;28;20385;-59
2022/09/07 05:33:53;;;;;;;9.98;2.88;;;16.20;99.90;;;;;;5047025;28;20073;-60
2022/09/07 05:36:40;;;;;;;20.35;3.17;;;16.20;99.90;;;;;;5048463;28;20051;-59
2022/09/07 05:39:07;;;;;;;27.23;4.45;;;16.20;99.90;;;;;;4695532;27;9999918;-59
2022/09/07 05:41:34;;;;;;;23.30;5.18;;;16.10;99.90;;;;;;5043229;28;20049;-59
2022/09/07 05:44:01;;;;;;;14.88;2.75;;;16.10;99.90;;;;;;5043963;28;20128;-59
2022/09/07 05:46:47;;;;;;;20.92;4.22;;;16.10;99.90;;;;;;5041169;28;20142;-59
2022/09/07 05:49:14;;;;;;;18.20;3.45;;;16.10;99.90;;;;;;5043518;28;20163;-59
2022/09/07 05:51:41;;;;;;;15.27;3.65;;;16.10;99.90;;;;;;5044036;28;20107;-59
2022/09/07 05:54:09;;;;;;;24.45;3.17;;;16.10;99.90;;;;;;5043564;28;20076;-59
2022/09/07 05:56:36;;;;;;;28.80;5.15;;;16.10;99.90;;;;;;5043559;28;20052;-60
2022/09/07 05:59:03;;;;;;;18.02;3.53;;;16.10;99.90;;;;;;5043811;28;20080;-58
2022/09/07 06:01:30;;;;;;;19.05;3.25;;;16.10;99.90;;;;;;5043557;28;20354;-59
2022/09/07 06:03:57;;;;;;;21.10;3.50;;;16.10;99.90;;;;;;5043747;28;20060;-60
2022/09/07 06:06:24;;;;;;;17.45;3.95;;;16.10;99.90;;;;;;5044870;28;20464;-60
2022/09/07 06:08:52;;;;;;;16.70;2.83;;;16.10;99.90;;;;;;5053591;28;20577;-59
2022/09/07 06:11:20;;;;;;;18.95;4.03;;;16.20;99.90;;;;;;5047125;28;20061;-59
2022/09/07 06:13:47;;;;;;;18.50;3.17;;;16.20;99.90;;;;;;5047100;28;20127;-59
2022/09/07 06:16:14;;;;;;;14.02;2.97;;;16.20;99.90;;;;;;5048637;28;20059;-60
2022/09/07 06:18:42;;;;;;;16.52;3.08;;;16.20;99.90;;;;;;5047119;28;20045;-60
2022/09/07 06:21:18;;;;;;;19.23;4.03;;;16.30;99.90;;;;;;5046487;28;20049;-60
2022/09/07 06:23:45;;;;;;;19.33;4.07;;;16.30;99.90;;;;;;5046677;28;20144;-59
2022/09/07 06:26:13;;;;;;;16.58;2.97;;;16.30;99.90;;;;;;5045019;28;20135;-59
2022/09/07 06:28:41;;;;;;;20.80;4.15;;;16.30;99.90;;;;;;5046925;28;20334;-60
2022/09/07 06:31:12;;;;;;;17.30;3.63;;;16.40;99.90;;;;;;5046578;28;20143;-59
2022/09/07 06:33:40;;;;;;;21.85;2.83;;;16.40;99.90;;;;;;5046572;28;20045;-60
2022/09/07 06:36:11;;;;;;;15.32;2.58;;;16.40;99.90;;;;;;5045508;28;20136;-59
2022/09/07 06:38:39;;;;;;;25.35;4.07;;;16.50;99.90;;;;;;5046499;28;20542;-59
2022/09/07 06:41:12;;;;;;;23.00;3.47;;;16.50;99.90;;;;;;5045271;28;20052;-59
2022/09/07 06:43:59;;;;;;;21.92;3.42;;;16.50;99.90;;;;;;5043165;28;20110;-62
2022/09/07 06:46:26;;;;;;;26.25;3.50;;;16.50;99.90;;;;;;5042776;28;20080;-60
2022/09/07 06:49:13;;;;;;;17.83;2.70;;;16.50;99.90;;;;;;5033058;28;20060;-60
2022/09/07 06:51:40;;;;;;;24.20;3.70;;;16.60;99.90;;;;;;5041792;28;20453;-59
2022/09/07 06:54:07;;;;;;;17.70;3.10;;;16.60;99.90;;;;;;5042594;28;20118;-59
2022/09/07 06:56:54;;;;;;;26.65;3.33;;;16.60;99.90;;;;;;5042029;28;20045;-58
2022/09/07 06:59:21;;;;;;;14.50;2.85;;;16.70;99.90;;;;;;5044606;28;20274;-58
2022/09/07 07:01:48;;;;;;;20.67;3.28;;;16.70;99.90;;;;;;5047877;28;20552;-60
2022/09/07 07:04:15;;;;;;;19.45;4.60;;;16.70;99.90;;;;;;5046516;28;20049;-60
2022/09/07 07:06:41;;;;;;;17.52;3.13;;;16.90;99.90;;;;;;5046137;28;20060;-60
2022/09/07 07:09:10;;;;;;;26.58;5.07;;;16.80;99.90;;;;;;5046207;28;20080;-59
2022/09/07 07:11:37;;;;;;;22.75;3.55;;;16.90;99.90;;;;;;5012112;28;20073;-59
2022/09/07 07:14:03;;;;;;;19.10;5.20;;;17.00;99.90;;;;;;5044649;28;20063;-59
2022/09/07 07:16:30;;;;;;;19.70;2.70;;;17.00;99.90;;;;;;5042753;28;20127;-59
2022/09/07 07:18:57;;;;;;;18.13;2.97;;;17.00;99.90;;;;;;5046021;28;20282;-59
2022/09/07 07:21:24;;;;;;;19.60;2.83;;;17.10;99.90;;;;;;5049040;28;20069;-58
2022/09/07 07:23:51;;;;;;;21.77;4.72;;;17.20;99.90;;;;;;5039120;28;20415;-59
2022/09/07 07:26:20;;;;;;;18.75;3.28;;;17.20;99.90;;;;;;5040952;28;20388;-59
2022/09/07 07:28:48;;;;;;;21.15;3.20;;;17.30;99.90;;;;;;5045904;28;20116;-59
2022/09/07 07:31:32;;;;;;;16.48;3.10;;;17.40;99.90;;;;;;5045761;28;20048;-58
2022/09/07 07:33:58;;;;;;;21.15;3.08;;;17.40;99.90;;;;;;5045995;28;20057;-58
2022/09/07 07:36:26;;;;;;;20.73;3.03;;;17.50;99.90;;;;;;5045473;28;20132;-59
2022/09/07 07:38:54;;;;;;;24.20;3.58;;;17.60;99.90;;;;;;5045169;28;20055;-58
2022/09/07 07:41:26;;;;;;;17.25;3.28;;;17.80;99.90;;;;;;5045599;28;20173;-58
2022/09/07 07:44:13;;;;;;;23.35;3.17;;;17.80;99.90;;;;;;5045428;28;20052;-59
2022/09/07 07:46:39;;;;;;;23.05;3.15;;;17.90;99.90;;;;;;5045624;28;20045;-59
2022/09/07 07:49:06;;;;;;;21.83;3.05;;;17.90;99.90;;;;;;5044205;28;20048;-58
2022/09/07 07:51:33;;;;;;;14.55;3.22;;;17.90;99.90;;;;;;5044738;28;20057;-60
2022/09/07 07:54:20;;;;;;;18.27;3.85;;;18.00;99.90;;;;;;5044332;28;20049;-58
2022/09/07 07:56:47;;;;;;;22.35;3.55;;;18.00;99.90;;;;;;5044929;28;20044;-60
2022/09/07 07:59:13;;;;;;;18.30;3.05;;;18.00;99.90;;;;;;5045454;28;20412;-59
2022/09/07 08:01:42;;;;;;;20.65;4.13;;;18.00;99.90;;;;;;5044437;28;20203;-61
2022/09/07 08:04:09;;;;;;;19.48;2.60;;;18.00;99.90;;;;;;5044293;28;20509;-60
2022/09/07 08:06:40;;;;;;;19.73;3.63;;;18.00;99.90;;;;;;5045379;28;20061;-59
2022/09/07 08:09:07;;;;;;;21.27;3.95;;;18.00;99.90;;;;;;5043318;28;20053;-59
2022/09/07 08:11:34;;;;;;;18.77;3.65;;;18.00;99.90;;;;;;5044297;28;20092;-60
2022/09/07 08:14:04;;;;;;;20.90;3.20;;;18.00;99.90;;;;;;5044737;28;20075;-58
2022/09/07 08:16:32;;;;;;;17.48;4.18;;;18.10;99.90;;;;;;5045060;28;20124;-59
2022/09/07 08:19:00;;;;;;;25.23;4.28;;;18.10;99.90;;;;;;5044991;28;20060;-60
2022/09/07 08:21:27;;;;;;;19.40;3.45;;;18.20;99.90;;;;;;5044504;28;20152;-61
2022/09/07 08:23:54;;;;;;;14.82;3.40;;;18.30;99.90;;;;;;5044808;28;20051;-63
2022/09/07 08:26:21;;;;;;;17.20;2.80;;;18.30;99.90;;;;;;5044913;28;20053;-60
2022/09/07 08:28:47;;;;;;;18.30;3.45;;;18.40;99.90;;;;;;5044394;28;20056;-60
2022/09/07 08:31:15;;;;;;;19.95;3.47;;;18.50;99.90;;;;;;5044564;28;20053;-60
2022/09/07 08:33:42;;;;;;;19.73;3.17;;;18.60;99.90;;;;;;5043919;28;20077;-59
2022/09/07 08:36:17;;;;;;;23.65;4.10;;;18.60;99.90;;;;;;5044693;28;20131;-58
2022/09/07 08:38:44;;;;;;;18.63;4.10;;;18.70;99.90;;;;;;5045512;28;20559;-60
2022/09/07 08:41:48;;;;;;;19.85;4.82;;;18.80;99.90;;;;;;5046153;28;20087;-57
2022/09/07 08:44:20;;;;;;;22.10;4.00;;;18.80;99.90;;;;;;5045852;28;20083;-58
2022/09/07 08:47:11;;;;;;;20.77;3.85;;;19.00;99.90;;;;;;5045905;28;20068;-58
2022/09/07 08:50:01;;;;;;;19.90;3.67;;;19.10;99.90;;;;;;5037637;28;20109;-56
2022/09/07 08:52:55;;;;;;;18.30;3.50;;;19.20;99.90;;;;;;5043624;28;20053;-59
2022/09/07 08:55:22;;;;;;;21.02;3.88;;;19.30;99.90;;;;;;5044612;28;20048;-59
2022/09/07 08:58:11;;;;;;;24.70;3.70;;;19.40;99.90;;;;;;5045134;28;20056;-59
2022/09/07 09:00:58;;;;;;;21.35;4.25;;;19.50;99.90;;;;;;5044070;28;20133;-58
2022/09/07 09:03:46;;;;;;;15.82;4.13;;;19.60;99.90;;;;;;5033781;28;20064;-59
2022/09/07 09:06:36;;;;;;;20.33;3.85;;;19.70;99.90;;;;;;5043428;28;20048;-60
2022/09/07 09:09:24;;;;;;;15.82;3.05;;;19.80;99.90;;;;;;5044518;28;20084;-59
2022/09/07 09:12:06;;;;;;;22.13;3.67;;;19.80;99.90;;;;;;5044165;28;20492;-60
2022/09/07 09:15:01;;;;;;;21.70;3.22;;;19.80;99.90;;;;;;5042904;28;20474;-61
2022/09/07 09:17:34;;;;;;;17.92;2.70;;;19.90;99.90;;;;;;5042306;28;20055;-60
2022/09/07 09:20:20;;;;;;;15.27;3.35;;;19.90;99.90;;;;;;5043240;28;20045;-65
2022/09/07 09:22:46;;;;;;;22.90;2.85;;;20.10;99.90;;;;;;5045278;28;20413;-58
2022/09/07 09:25:32;;;;;;;17.65;3.38;;;20.40;99.90;;;;;;5044505;28;20088;-58
2022/09/07 09:27:59;;;;;;;20.25;5.50;;;20.80;99.90;;;;;;5038298;28;20041;-59
2022/09/07 09:30:27;;;;;;;18.35;2.75;;;20.90;99.90;;;;;;5044954;28;20131;-59
2022/09/07 09:33:14;;;;;;;16.33;3.50;;;21.10;99.90;;;;;;5045805;28;20594;-59
2022/09/07 09:35:41;;;;;;;26.00;4.03;;;21.40;99.90;;;;;;5049379;28;20124;-58
2022/09/07 09:38:34;;;;;;;13.10;4.10;;;21.60;99.90;;;;;;5048198;28;20132;-58
2022/09/07 09:41:13;;;;;;;20.58;2.58;;;21.60;99.90;;;;;;5044126;28;20119;-59
2022/09/07 09:43:47;;;;;;;15.02;3.53;;;21.60;99.90;;;;;;5044104;28;20499;-60
2022/09/07 09:46:27;;;;;;;18.67;3.63;;;21.60;99.90;;;;;;5051090;28;20084;-60
2022/09/07 09:49:19;;;;;;;12.27;2.65;;;21.80;99.90;;;;;;5043226;28;20049;-60
2022/09/07 09:51:52;;;;;;;14.90;3.42;;;21.90;99.90;;;;;;5042288;28;20499;-61
2022/09/07 09:54:40;;;;;;;16.80;4.75;;;21.60;99.90;;;;;;5048926;28;20083;-60
2022/09/07 09:57:30;;;;;;;21.33;3.72;;;21.30;99.90;;;;;;5046353;28;20041;-60
2022/09/07 09:59:59;;;;;;;8.75;2.67;;;21.10;99.90;;;;;;5046631;28;20049;-60
2022/09/07 10:02:32;;;;;;;20.70;3.20;;;20.90;99.90;;;;;;5047706;28;20075;-59
2022/09/07 10:05:40;;;;;;;15.13;2.67;;;20.70;99.90;;;;;;5048074;28;20049;-60
2022/09/07 10:08:27;;;;;;;13.30;3.13;;;20.50;99.90;;;;;;5046965;28;20327;-60
2022/09/07 10:11:02;;;;;;;12.05;3.78;;;20.40;99.90;;;;;;5048703;28;20045;-59
2022/09/07 10:13:34;;;;;;;15.70;3.80;;;20.30;99.90;;;;;;5047119;28;20040;-60
2022/09/07 10:16:05;;;;;;;15.30;3.28;;;20.10;99.90;;;;;;5049610;28;20131;-59
2022/09/07 10:18:39;;;;;;;11.05;2.47;;;20.00;99.90;;;;;;5048037;28;20074;-59
2022/09/07 10:21:26;;;;;;;16.55;4.45;;;20.00;99.90;;;;;;5050407;28;20106;-60
2022/09/07 10:24:03;;;;;;;10.15;2.50;;;19.90;99.90;;;;;;5047534;28;20041;-60
2022/09/07 10:26:34;;;;;;;15.27;3.92;;;19.90;99.90;;;;;;5038561;28;20053;-58
2022/09/07 10:29:25;;;;;;;19.15;3.58;;;19.90;99.90;;;;;;5046953;28;20040;-59
2022/09/07 10:32:13;;;;;;;16.95;4.13;;;19.90;99.90;;;;;;5039990;28;20519;-59
2022/09/07 10:35:34;;;;;;;18.23;3.35;;;19.90;99.90;;;;;;5049827;28;20045;-60
2022/09/07 10:38:08;;;;;;;18.15;3.22;;;19.90;99.90;;;;;;5007318;28;20042;-60
2022/09/07 10:41:04;;;;;;;14.15;2.42;;;20.00;99.90;;;;;;5040217;28;20053;-60
2022/09/07 10:43:45;;;;;;;16.70;3.22;;;20.10;99.90;;;;;;5042058;28;20099;-60
2022/09/07 10:46:21;;;;;;;22.30;3.88;;;20.30;99.90;;;;;;5048612;28;20050;-60
2022/09/07 10:49:11;;;;;;;12.00;2.80;;;20.40;99.90;;;;;;5048792;28;20049;-60
2022/09/07 10:51:59;;;;;;;10.63;2.88;;;20.40;99.90;;;;;;5048826;28;20041;-59
2022/09/07 10:54:35;;;;;;;17.17;3.40;;;20.50;99.90;;;;;;5049732;28;20144;-60
2022/09/07 10:57:14;;;;;;;17.08;4.25;;;20.70;99.90;;;;;;5045377;28;20045;-60
2022/09/07 10:59:47;;;;;;;19.08;3.25;;;20.80;99.90;;;;;;5048340;28;20049;-60
2022/09/07 11:02:52;;;;;;;19.50;2.88;;;20.90;99.90;;;;;;5048767;28;20492;-60
2022/09/07 11:05:51;;;;;;;18.02;3.30;;;21.00;99.90;;;;;;5049399;28;20052;-61
2022/09/07 11:08:25;;;;;;;15.50;2.97;;;21.10;99.90;;;;;;5049609;28;20292;-60
2022/09/07 11:11:05;;;;;;;15.20;3.03;;;21.10;99.90;;;;;;5048809;28;20045;-60
2022/09/07 11:13:34;;;;;;;18.48;3.28;;;21.10;99.90;;;;;;5047997;28;20472;-60
2022/09/07 11:16:23;;;;;;;30.73;3.95;;;21.20;99.90;;;;;;5046572;28;20121;-59
2022/09/07 11:19:28;;;;;;;18.33;3.22;;;21.30;99.90;;;;;;5048131;28;20052;-60
2022/09/07 11:22:38;;;;;;;12.07;2.50;;;21.30;99.90;;;;;;5043538;28;20122;-60
2022/09/07 11:25:27;;;;;;;12.63;2.80;;;21.30;99.90;;;;;;5047943;28;20091;-60
2022/09/07 11:27:56;;;;;;;10.50;2.55;;;21.30;99.90;;;;;;5028536;28;20118;-59
2022/09/07 11:30:25;;;;;;;12.25;2.83;;;21.40;99.90;;;;;;5049235;28;20037;-59
2022/09/07 11:33:13;;;;;;;15.40;3.30;;;21.50;99.90;;;;;;4680568;28;10001352;-59
2022/09/07 11:35:44;;;;;;;11.40;2.92;;;21.60;99.90;;;;;;5041299;28;20060;-60
2022/09/07 11:38:22;;;;;;;16.13;3.38;;;21.60;99.90;;;;;;5048541;28;20037;-59
2022/09/07 11:41:14;;;;;;;14.32;2.70;;;21.70;99.90;;;;;;5047722;28;20046;-60
2022/09/07 11:43:47;;;;;;;14.38;3.03;;;21.80;99.90;;;;;;5044880;28;20041;-61
2022/09/07 11:46:21;;;;;;;13.35;2.70;;;21.70;99.90;;;;;;5047070;28;20385;-60
2022/09/07 11:48:54;;;;;;;12.38;2.65;;;21.70;99.90;;;;;;5028116;28;20159;-60
2022/09/07 11:51:34;;;;;;;15.55;3.15;;;21.60;99.90;;;;;;5045793;28;20264;-60
2022/09/07 11:54:12;;;;;;;11.45;2.58;;;21.60;99.90;;;;;;5044790;28;20045;-60
2022/09/07 11:56:38;;;;;;;15.88;3.10;;;21.60;99.90;;;;;;5031773;28;20476;-59
2022/09/07 11:59:17;;;;;;;12.77;2.77;;;21.70;99.90;;;;;;5049025;28;20052;-60
2022/09/07 12:02:12;;;;;;;17.15;3.83;;;21.70;99.90;;;;;;5048648;28;20068;-60
2022/09/07 12:04:45;;;;;;;18.98;4.03;;;21.60;99.90;;;;;;5047088;28;20081;-61
2022/09/07 12:07:21;;;;;;;14.95;2.08;;;21.60;99.90;;;;;;5046993;28;20067;-59
2022/09/07 12:10:06;;;;;;;15.07;2.17;;;21.60;99.90;;;;;;5048875;28;20045;-60
2022/09/07 12:12:53;;;;;;;16.80;4.25;;;21.70;99.90;;;;;;5045500;28;20049;-60
2022/09/07 12:15:34;;;;;;;10.38;2.60;;;21.80;99.90;;;;;;5031740;28;20416;-60
2022/09/07 12:18:26;;;;;;;17.17;2.08;;;21.90;99.90;;;;;;5046509;28;20045;-61
2022/09/07 12:20:53;;;;;;;17.98;3.28;;;22.00;99.90;;;;;;5047099;28;20075;-60
2022/09/07 12:23:29;;;;;;;14.00;3.05;;;22.10;99.90;;;;;;5046716;28;20063;-60
2022/09/07 12:26:33;;;;;;;13.27;3.28;;;22.00;99.90;;;;;;5046809;28;20495;-60
2022/09/07 12:29:00;;;;;;;;;;;22.00;99.90;;;;;;5048630;28;20132;-59
2022/09/07 12:31:46;;;;;;;14.88;3.33;;;22.00;99.90;;;;;;5047796;28;19929;-60
2022/09/07 12:34:33;;;;;;;8.70;2.40;;;22.10;99.90;;;;;;5042645;28;20511;-60
2022/09/07 12:37:21;;;;;;;16.42;5.35;;;22.20;99.90;;;;;;5047503;28;20037;-59
2022/09/07 12:39:48;;;;;;;11.52;1.83;;;22.20;99.90;;;;;;5040569;28;20060;-59
2022/09/07 12:42:23;;;;;;;14.15;2.85;;;22.20;99.90;;;;;;5047316;28;20094;-60
2022/09/07 12:45:29;;;;;;;13.90;2.50;;;22.30;99.90;;;;;;5046769;28;20079;-60
2022/09/07 12:47:57;;;;;;;9.60;2.55;;;22.40;99.90;;;;;;5043379;28;20079;-59
2022/09/07 12:50:27;;;;;;;12.43;4.07;;;22.50;99.90;;;;;;5046141;28;20072;-59
2022/09/07 12:53:12;;;;;;;8.85;1.88;;;22.40;99.90;;;;;;5046413;28;20044;-60
2022/09/07 12:55:58;;;;;;;13.70;2.65;;;22.60;99.90;;;;;;5046420;28;20049;-60
2022/09/07 12:59:07;;;;;;;13.13;2.58;;;22.50;99.90;;;;;;5047277;28;20041;-60
2022/09/07 13:02:10;;;;;;;11.07;3.53;;;22.50;99.90;;;;;;5043544;28;20051;-60
2022/09/07 13:04:40;;;;;;;15.63;3.55;;;22.50;99.90;;;;;;5038730;28;20049;-60
2022/09/07 13:07:28;;;;;;;10.73;2.65;;;22.40;99.90;;;;;;5047615;28;20064;-60
2022/09/07 13:09:58;;;;;;;12.60;4.30;;;22.60;99.90;;;;;;5047178;28;20507;-60
2022/09/07 13:12:34;;;;;;;11.82;2.42;;;22.70;99.90;;;;;;5045732;28;20071;-59
2022/09/07 13:15:50;;;;;;;13.82;2.25;;;22.70;99.90;;;;;;5044195;28;20073;-59